Time;durP1;ratioP1;P1;durP2;ratioP2;P2;SDS_P1;SDS_P2;PMS_P1;PMS_P2;Temp;Humidity;BMP_temperature;BMP_pressure;BME280_temperature;BME280_humidity;BME280_pressure;Samples;Min_cycle;Max_cycle;Signal;HPM_P1;HPM_P2
2021/04/22 00:01:37;;;;;;;21.40;4.00;;;4.40;99.90;;;;;;5072703;28;20028;-76
2021/04/22 00:04:03;;;;;;;20.25;3.30;;;4.30;99.90;;;;;;5072868;28;20033;-75
2021/04/22 00:06:32;;;;;;;17.45;2.85;;;4.30;99.90;;;;;;5072427;28;20028;-74
2021/04/22 00:08:58;;;;;;;18.40;3.42;;;4.30;99.90;;;;;;5072749;28;20059;-75
2021/04/22 00:11:23;;;;;;;17.63;4.03;;;4.20;99.90;;;;;;5072784;28;20057;-75
2021/04/22 00:13:49;;;;;;;15.15;3.10;;;4.20;99.90;;;;;;5071584;28;20103;-74
2021/04/22 00:16:15;;;;;;;10.05;2.97;;;4.10;99.90;;;;;;5073144;28;20028;-75
2021/04/22 00:18:41;;;;;;;15.00;3.33;;;4.10;99.90;;;;;;5071988;28;20483;-75
2021/04/22 00:21:06;;;;;;;12.48;3.53;;;4.10;99.90;;;;;;5073333;28;20044;-75
2021/04/22 00:23:32;;;;;;;24.17;3.55;;;4.10;99.90;;;;;;5073042;28;20366;-74
2021/04/22 00:25:58;;;;;;;13.35;3.83;;;4.10;99.90;;;;;;5072483;28;20031;-75
2021/04/22 00:28:24;;;;;;;18.98;3.92;;;4.00;99.90;;;;;;5073322;28;20024;-75
2021/04/22 00:30:50;;;;;;;16.15;5.10;;;4.00;99.90;;;;;;5073405;28;20067;-74
2021/04/22 00:33:19;;;;;;;19.42;3.80;;;4.00;99.90;;;;;;5072173;28;20021;-75
2021/04/22 00:35:45;;;;;;;26.45;4.53;;;3.90;99.90;;;;;;5072881;28;20020;-75
2021/04/22 00:38:11;;;;;;;19.65;3.83;;;4.00;99.90;;;;;;5072934;28;20020;-75
2021/04/22 00:40:40;;;;;;;24.48;4.22;;;3.90;99.90;;;;;;5072271;28;20024;-77
2021/04/22 00:43:12;;;;;;;18.30;3.88;;;3.90;99.90;;;;;;5073097;28;20032;-74
2021/04/22 00:45:40;;;;;;;14.65;3.50;;;3.90;99.90;;;;;;5072567;28;20476;-74
2021/04/22 00:48:06;;;;;;;15.43;3.80;;;3.80;99.90;;;;;;5072258;28;20032;-74
2021/04/22 00:50:37;;;;;;;18.58;4.28;;;3.90;99.90;;;;;;5072465;28;20063;-75
2021/04/22 00:53:04;;;;;;;11.18;3.28;;;3.80;99.90;;;;;;5072397;28;20030;-75
2021/04/22 00:55:31;;;;;;;22.00;4.88;;;3.90;99.90;;;;;;5072267;28;20038;-75
2021/04/22 00:57:57;;;;;;;14.77;4.55;;;3.90;99.90;;;;;;5073019;28;20553;-74
2021/04/22 01:00:27;;;;;;;9.68;4.55;;;3.80;99.90;;;;;;5072159;28;20055;-75
2021/04/22 01:02:52;;;;;;;15.40;4.07;;;3.80;99.90;;;;;;5072331;28;20475;-75
2021/04/22 01:05:21;;;;;;;15.25;3.85;;;3.80;99.90;;;;;;5072144;28;20077;-75
2021/04/22 01:07:47;;;;;;;23.55;5.15;;;3.80;99.90;;;;;;5072466;28;20035;-75
2021/04/22 01:10:15;;;;;;;19.13;4.03;;;3.70;99.90;;;;;;5072206;28;20467;-75
2021/04/22 01:12:41;;;;;;;20.65;5.28;;;3.80;99.90;;;;;;5072410;28;20112;-75
2021/04/22 01:15:12;;;;;;;22.73;4.45;;;3.70;99.90;;;;;;5071635;28;20477;-76
2021/04/22 01:17:38;;;;;;;17.98;4.60;;;3.70;99.90;;;;;;5061980;28;20130;-74
2021/04/22 01:20:42;;;;;;;18.27;5.22;;;3.90;99.90;;;;;;5079483;28;20024;-76
2021/04/22 01:23:08;;;;;;;35.80;8.30;;;3.60;99.90;;;;;;5072146;28;20025;-76
2021/04/22 01:25:47;;;;;;;24.35;4.25;;;3.70;99.90;;;;;;5072105;28;20055;-75
2021/04/22 01:28:14;;;;;;;18.25;4.97;;;3.60;99.90;;;;;;5076738;28;20043;-74
2021/04/22 01:30:44;;;;;;;23.15;6.10;;;3.70;99.90;;;;;;5076056;28;20060;-75
2021/04/22 01:33:11;;;;;;;20.13;5.53;;;3.60;99.90;;;;;;5082480;28;20025;-75
2021/04/22 01:35:40;;;;;;;30.00;5.25;;;3.60;99.90;;;;;;5079510;28;20051;-75
2021/04/22 01:38:07;;;;;;;18.45;4.65;;;3.60;99.90;;;;;;5072025;28;20021;-75
2021/04/22 01:40:34;;;;;;;22.60;5.35;;;3.50;99.90;;;;;;5072127;28;20027;-74
2021/04/22 01:43:00;;;;;;;17.92;5.00;;;3.50;99.90;;;;;;5071577;28;20024;-74
2021/04/22 01:45:26;;;;;;;18.23;5.97;;;3.50;99.90;;;;;;5071617;28;20086;-74
2021/04/22 01:47:55;;;;;;;22.80;5.53;;;3.50;99.90;;;;;;5071925;28;20119;-73
2021/04/22 01:50:26;;;;;;;22.20;5.00;;;3.50;99.90;;;;;;5070827;28;20385;-74
2021/04/22 01:52:53;;;;;;;19.40;4.25;;;3.50;99.90;;;;;;5071985;28;20028;-75
2021/04/22 01:55:27;;;;;;;16.88;5.95;;;3.40;99.90;;;;;;5072088;28;20033;-75
2021/04/22 01:57:54;;;;;;;23.20;6.65;;;3.40;99.90;;;;;;5071972;28;20028;-74
2021/04/22 02:00:30;;;;;;;23.90;5.57;;;3.40;99.90;;;;;;5071640;28;20029;-75
2021/04/22 02:02:55;;;;;;;17.30;5.60;;;3.40;99.90;;;;;;5071737;28;20017;-74
2021/04/22 02:05:21;;;;;;;12.23;5.40;;;3.40;99.90;;;;;;5070879;28;20391;-76
2021/04/22 02:07:48;;;;;;;18.80;4.60;;;3.40;99.90;;;;;;5070902;28;20040;-75
2021/04/22 02:10:14;;;;;;;26.55;5.68;;;3.40;99.90;;;;;;5072031;28;20524;-75
2021/04/22 02:12:39;;;;;;;27.90;5.57;;;3.40;99.90;;;;;;5070457;28;20154;-75
2021/04/22 02:15:11;;;;;;;23.45;5.07;;;3.40;99.90;;;;;;5072173;28;20071;-75
2021/04/22 02:17:37;;;;;;;26.58;5.72;;;3.40;99.90;;;;;;5071980;28;20017;-76
2021/04/22 02:20:14;;;;;;;25.73;7.22;;;3.50;99.90;;;;;;5070982;28;20024;-74
2021/04/22 02:22:39;;;;;;;26.00;6.40;;;3.50;99.90;;;;;;5067309;28;20530;-74
2021/04/22 02:25:09;;;;;;;24.92;6.65;;;3.50;99.90;;;;;;5071838;28;20067;-75
2021/04/22 02:27:35;;;;;;;24.45;7.40;;;3.50;99.90;;;;;;5071408;28;20023;-75
2021/04/22 02:30:03;;;;;;;26.17;5.30;;;3.50;99.90;;;;;;5071885;28;20048;-75
2021/04/22 02:32:29;;;;;;;16.48;5.45;;;3.50;99.90;;;;;;5070923;28;20037;-75
2021/04/22 02:34:57;;;;;;;17.45;5.43;;;3.40;99.90;;;;;;5071750;28;20028;-75
2021/04/22 02:37:23;;;;;;;18.63;4.88;;;3.40;99.90;;;;;;5073507;28;20321;-74
2021/04/22 02:39:48;;;;;;;22.65;6.38;;;3.40;99.90;;;;;;5074979;28;20025;-75
2021/04/22 02:42:14;;;;;;;16.98;5.05;;;3.30;99.90;;;;;;5075274;28;20447;-77
2021/04/22 02:44:40;;;;;;;29.40;5.95;;;3.30;99.90;;;;;;5074726;28;20380;-76
2021/04/22 02:47:05;;;;;;;16.95;5.43;;;3.20;99.90;;;;;;5074443;28;20048;-74
2021/04/22 02:49:31;;;;;;;14.25;5.68;;;3.20;99.90;;;;;;5074266;28;20083;-74
2021/04/22 02:51:57;;;;;;;23.25;5.22;;;3.20;99.90;;;;;;5075305;28;20016;-75
2021/04/22 02:54:22;;;;;;;16.23;4.75;;;3.10;99.90;;;;;;5074049;28;20052;-75
2021/04/22 02:56:48;;;;;;;35.83;7.07;;;3.10;99.90;;;;;;5074900;28;20016;-74
2021/04/22 02:59:13;;;;;;;21.77;5.00;;;3.10;99.90;;;;;;5075544;28;20066;-75
2021/04/22 03:01:39;;;;;;;20.25;5.35;;;3.10;99.90;;;;;;5073997;28;20038;-75
2021/04/22 03:04:07;;;;;;;24.63;5.72;;;3.10;99.90;;;;;;5074901;28;20050;-74
2021/04/22 03:06:33;;;;;;;21.42;5.68;;;3.10;99.90;;;;;;5074357;28;20377;-74
2021/04/22 03:08:59;;;;;;;22.35;5.30;;;3.10;99.90;;;;;;5074549;28;20072;-75
2021/04/22 03:11:24;;;;;;;27.75;5.30;;;3.10;99.90;;;;;;5074526;28;20112;-76
2021/04/22 03:13:50;;;;;;;26.70;5.30;;;3.10;99.90;;;;;;5074785;28;20031;-76
2021/04/22 03:16:15;;;;;;;17.05;5.15;;;3.10;99.90;;;;;;5073668;28;20029;-75
2021/04/22 03:18:41;;;;;;;19.98;6.30;;;3.20;99.90;;;;;;5074384;28;20028;-74
2021/04/22 03:21:07;;;;;;;19.65;4.82;;;3.20;99.90;;;;;;5081343;28;20503;-76
2021/04/22 03:23:32;;;;;;;18.27;4.88;;;3.10;99.90;;;;;;5078896;28;20039;-76
2021/04/22 03:25:58;;;;;;;23.42;8.52;;;3.20;99.90;;;;;;5075027;28;20040;-74
2021/04/22 03:28:24;;;;;;;16.67;5.70;;;3.10;99.90;;;;;;5074350;28;20032;-75
2021/04/22 03:30:52;;;;;;;16.02;5.25;;;3.00;99.90;;;;;;5079165;28;20408;-75
2021/04/22 03:33:18;;;;;;;20.45;5.53;;;3.00;99.90;;;;;;5082640;28;20103;-74
2021/04/22 03:35:44;;;;;;;18.88;5.70;;;2.90;99.90;;;;;;5083341;28;20068;-75
2021/04/22 03:38:10;;;;;;;15.85;4.70;;;2.90;99.90;;;;;;5081223;28;20064;-75
2021/04/22 03:40:35;;;;;;;15.38;5.00;;;2.90;99.90;;;;;;5075307;28;20365;-75
2021/04/22 03:43:01;;;;;;;21.77;5.43;;;2.80;99.90;;;;;;5074074;28;20051;-74
2021/04/22 03:45:27;;;;;;;20.05;4.88;;;2.90;99.90;;;;;;5074811;28;20028;-74
2021/04/22 03:47:53;;;;;;;16.50;4.85;;;2.80;99.90;;;;;;5074015;28;20381;-73
2021/04/22 03:50:19;;;;;;;16.35;5.18;;;2.80;99.90;;;;;;5072826;28;20036;-76
2021/04/22 03:52:45;;;;;;;21.85;4.60;;;2.80;99.90;;;;;;5073314;28;20422;-75
2021/04/22 03:55:15;;;;;;;21.98;4.50;;;2.80;99.90;;;;;;5073299;28;20401;-76
2021/04/22 03:57:41;;;;;;;16.70;4.32;;;2.80;99.90;;;;;;5072325;28;20046;-76
2021/04/22 04:00:12;;;;;;;19.85;4.40;;;2.70;99.90;;;;;;5072984;28;20469;-76
2021/04/22 04:02:38;;;;;;;15.25;3.90;;;2.70;99.90;;;;;;5072712;28;20479;-76
2021/04/22 04:05:05;;;;;;;27.15;4.88;;;2.70;99.90;;;;;;5072454;28;20070;-75
2021/04/22 04:07:31;;;;;;;18.40;4.57;;;2.70;99.90;;;;;;5072638;28;20031;-75
2021/04/22 04:09:56;;;;;;;26.13;4.63;;;2.80;99.90;;;;;;5073209;28;20115;-75
2021/04/22 04:12:22;;;;;;;23.60;4.28;;;2.90;99.90;;;;;;5072381;28;20021;-76
2021/04/22 04:14:48;;;;;;;20.77;4.28;;;2.90;99.90;;;;;;5071927;28;20159;-74
2021/04/22 04:17:13;;;;;;;18.20;3.72;;;3.00;99.90;;;;;;5073394;28;20036;-75
2021/04/22 04:19:39;;;;;;;16.23;3.92;;;3.10;99.90;;;;;;5072312;28;20032;-75
2021/04/22 04:22:04;;;;;;;12.98;3.67;;;3.10;99.90;;;;;;5073161;28;20021;-75
2021/04/22 04:24:30;;;;;;;15.35;5.30;;;3.10;99.90;;;;;;5073054;28;20388;-75
2021/04/22 04:26:55;;;;;;;17.45;4.93;;;3.10;99.90;;;;;;5072670;28;20016;-75
2021/04/22 04:29:21;;;;;;;17.50;3.83;;;3.00;99.90;;;;;;5072395;28;20036;-76
2021/04/22 04:31:47;;;;;;;20.60;4.93;;;3.10;99.90;;;;;;5072239;28;20099;-74
2021/04/22 04:34:13;;;;;;;23.95;4.15;;;3.10;99.90;;;;;;5073090;28;20082;-75
2021/04/22 04:36:43;;;;;;;23.20;4.72;;;3.20;99.90;;;;;;5072772;28;20107;-76
2021/04/22 04:39:10;;;;;;;17.23;3.33;;;3.20;99.90;;;;;;5072275;28;20025;-76
2021/04/22 04:41:36;;;;;;;22.27;5.10;;;3.20;99.90;;;;;;5072623;28;20037;-75
2021/04/22 04:44:02;;;;;;;16.88;3.72;;;3.20;99.90;;;;;;5072650;28;20395;-74
2021/04/22 04:46:30;;;;;;;22.23;4.25;;;3.30;99.90;;;;;;5072295;28;20020;-74
2021/04/22 04:48:55;;;;;;;27.27;5.15;;;3.30;99.90;;;;;;5072522;28;20024;-75
2021/04/22 04:51:21;;;;;;;18.92;4.45;;;3.30;99.90;;;;;;5072718;28;20086;-75
2021/04/22 04:53:48;;;;;;;20.83;4.15;;;3.30;99.90;;;;;;5072366;28;20468;-76
2021/04/22 04:56:17;;;;;;;21.23;4.05;;;3.40;99.90;;;;;;5072839;28;20033;-75
2021/04/22 04:58:43;;;;;;;20.42;5.20;;;3.40;99.90;;;;;;5072282;28;20020;-76
2021/04/22 05:01:08;;;;;;;18.38;4.03;;;3.50;99.90;;;;;;5071878;28;20025;-75
2021/04/22 05:03:34;;;;;;;26.10;5.38;;;3.40;99.90;;;;;;5072235;28;20415;-75
2021/04/22 05:05:59;;;;;;;25.52;4.63;;;3.40;99.90;;;;;;5072425;28;20027;-76
2021/04/22 05:08:25;;;;;;;19.77;6.10;;;3.40;99.90;;;;;;5071521;28;20048;-76
2021/04/22 05:10:50;;;;;;;13.65;4.45;;;3.50;99.90;;;;;;5072421;28;20028;-75
2021/04/22 05:13:16;;;;;;;22.75;4.75;;;3.40;99.90;;;;;;5072521;28;20120;-76
2021/04/22 05:15:42;;;;;;;18.42;4.10;;;3.50;99.90;;;;;;5071337;28;20032;-75
2021/04/22 05:18:07;;;;;;;14.75;3.92;;;3.50;99.90;;;;;;5072360;28;20392;-75
2021/04/22 05:20:33;;;;;;;15.18;4.20;;;3.60;99.90;;;;;;5072081;28;20413;-75
2021/04/22 05:22:58;;;;;;;17.60;4.65;;;3.60;99.90;;;;;;5077740;28;20028;-75
2021/04/22 05:25:24;;;;;;;19.05;4.03;;;3.70;99.90;;;;;;5089688;28;20032;-77
2021/04/22 05:27:50;;;;;;;24.83;6.50;;;3.80;99.90;;;;;;5072466;28;20024;-75
2021/04/22 05:30:16;;;;;;;27.52;5.30;;;3.80;99.90;;;;;;5071674;28;20052;-75
2021/04/22 05:32:41;;;;;;;21.48;4.35;;;3.80;99.90;;;;;;5075414;28;20067;-73
2021/04/22 05:35:07;;;;;;;22.65;5.35;;;3.80;99.90;;;;;;5080398;28;20024;-75
2021/04/22 05:37:33;;;;;;;20.55;5.28;;;3.90;99.90;;;;;;5073983;28;20019;-73
2021/04/22 05:39:58;;;;;;;15.68;4.25;;;3.90;99.90;;;;;;5076271;28;20021;-74
2021/04/22 05:42:24;;;;;;;17.85;4.18;;;4.00;99.90;;;;;;5071153;28;20414;-74
2021/04/22 05:44:50;;;;;;;18.85;3.92;;;4.00;99.90;;;;;;5072161;28;20029;-74
2021/04/22 05:47:15;;;;;;;21.42;3.65;;;4.10;99.90;;;;;;5071764;28;20032;-74
2021/04/22 05:49:41;;;;;;;19.77;4.07;;;4.10;99.90;;;;;;5070926;28;20064;-76
2021/04/22 05:52:07;;;;;;;20.88;3.25;;;4.20;99.90;;;;;;5071277;28;20413;-75
2021/04/22 05:54:32;;;;;;;18.55;3.42;;;4.30;99.90;;;;;;5074497;28;20032;-73
2021/04/22 05:56:58;;;;;;;14.95;3.20;;;4.30;99.90;;;;;;5070477;28;20025;-74
2021/04/22 05:59:24;;;;;;;23.73;4.65;;;4.40;99.90;;;;;;5067901;28;20111;-74
2021/04/22 06:01:49;;;;;;;23.25;3.92;;;4.60;99.90;;;;;;5069952;28;20025;-75
2021/04/22 06:04:15;;;;;;;20.48;3.53;;;4.60;99.90;;;;;;5069631;28;20111;-75
2021/04/22 06:06:40;;;;;;;15.32;3.30;;;4.70;99.90;;;;;;5068924;28;20515;-75
2021/04/22 06:09:06;;;;;;;20.60;3.95;;;4.70;99.90;;;;;;5069730;28;20028;-74
2021/04/22 06:11:32;;;;;;;15.13;2.67;;;4.80;99.90;;;;;;5070815;28;20037;-74
2021/04/22 06:13:57;;;;;;;17.13;3.83;;;4.90;99.90;;;;;;5074204;28;20031;-74
2021/04/22 06:16:23;;;;;;;16.83;4.80;;;4.90;99.90;;;;;;5073934;28;20051;-74
2021/04/22 06:18:49;;;;;;;12.15;2.75;;;5.00;99.90;;;;;;5074507;28;20371;-74
2021/04/22 06:21:14;;;;;;;13.02;3.50;;;5.00;99.90;;;;;;5074759;28;20105;-74
2021/04/22 06:23:40;;;;;;;11.35;3.72;;;5.10;99.90;;;;;;5074413;28;20061;-74
2021/04/22 06:26:05;;;;;;;13.20;3.80;;;5.20;99.90;;;;;;5073526;28;20475;-74
2021/04/22 06:28:31;;;;;;;35.78;4.90;;;5.20;99.90;;;;;;5074948;28;20108;-74
2021/04/22 06:30:57;;;;;;;14.70;3.22;;;5.30;99.90;;;;;;5075655;28;20044;-84
2021/04/22 06:33:22;;;;;;;20.85;3.45;;;5.30;99.90;;;;;;5077514;28;20040;-84
2021/04/22 06:35:48;;;;;;;19.17;3.90;;;5.40;99.90;;;;;;5077929;28;20436;-85
2021/04/22 06:38:13;;;;;;;20.63;3.45;;;5.50;99.90;;;;;;5077764;28;20020;-84
2021/04/22 06:40:39;;;;;;;23.63;3.42;;;5.50;99.90;;;;;;5076174;28;20017;-84
2021/04/22 06:43:08;;;;;;;18.27;3.45;;;5.60;99.90;;;;;;5075984;28;20174;-85
2021/04/22 06:45:36;;;;;;;11.23;2.90;;;5.70;99.90;;;;;;5075134;28;20149;-84
2021/04/22 06:48:02;;;;;;;6.10;2.60;;;5.90;99.90;;;;;;5078517;28;20032;-83
2021/04/22 06:50:28;;;;;;;11.18;2.97;;;5.80;99.90;;;;;;5076011;28;20036;-79
2021/04/22 06:52:53;;;;;;;21.08;3.33;;;5.90;99.90;;;;;;5074378;28;20017;-81
2021/04/22 06:55:21;;;;;;;17.63;2.85;;;6.00;99.90;;;;;;5073940;28;20094;-73
2021/04/22 06:57:48;;;;;;;9.57;2.92;;;6.10;99.90;;;;;;5072566;28;20024;-79
2021/04/22 07:00:21;;;;;;;11.75;2.92;;;6.20;99.90;;;;;;5068304;28;20032;-78
2021/04/22 07:02:47;;;;;;;14.95;2.80;;;6.30;99.90;;;;;;5071927;28;20468;-76
2021/04/22 07:05:14;;;;;;;9.10;2.80;;;6.40;99.90;;;;;;5072672;28;20040;-75
2021/04/22 07:07:40;;;;;;;16.20;3.30;;;6.60;99.90;;;;;;5071583;28;20021;-75
2021/04/22 07:10:08;;;;;;;12.57;2.28;;;6.70;99.90;;;;;;5072359;28;20025;-73
2021/04/22 07:12:34;;;;;;;15.30;2.95;;;6.80;99.90;;;;;;5072867;28;20024;-73
2021/04/22 07:14:59;;;;;;;20.35;4.28;;;6.90;99.90;;;;;;5073148;28;20043;-74
2021/04/22 07:17:25;;;;;;;16.08;2.95;;;7.00;99.90;;;;;;5073797;28;20024;-74
2021/04/22 07:19:51;;;;;;;11.43;2.55;;;7.00;99.90;;;;;;5074430;28;20028;-74
2021/04/22 07:22:17;;;;;;;19.90;2.85;;;7.00;99.90;;;;;;5073851;28;20021;-75
2021/04/22 07:24:43;;;;;;;23.10;3.50;;;7.10;99.90;;;;;;5076882;28;20028;-76
2021/04/22 07:27:10;;;;;;;9.90;2.63;;;7.20;99.90;;;;;;5078748;28;20048;-75
2021/04/22 07:29:36;;;;;;;15.10;3.55;;;7.20;99.90;;;;;;5063261;28;20036;-74
2021/04/22 07:32:03;;;;;;;12.48;2.83;;;7.20;99.90;;;;;;5074852;28;20041;-74
2021/04/22 07:34:29;;;;;;;13.32;2.10;;;7.20;99.90;;;;;;5075199;28;20033;-75
2021/04/22 07:36:55;;;;;;;9.45;2.05;;;7.20;99.90;;;;;;5071399;28;20025;-73
2021/04/22 07:39:21;;;;;;;12.75;2.30;;;7.20;99.90;;;;;;5073394;28;20036;-74
2021/04/22 07:41:47;;;;;;;15.48;2.40;;;7.20;99.90;;;;;;5080304;28;20039;-74
2021/04/22 07:44:13;;;;;;;10.95;2.30;;;7.30;99.90;;;;;;5074106;28;20334;-75
2021/04/22 07:46:39;;;;;;;12.90;2.67;;;7.50;99.90;;;;;;5073207;28;20020;-75
2021/04/22 07:49:06;;;;;;;32.88;2.30;;;7.40;99.90;;;;;;5073222;28;20048;-75
2021/04/22 07:51:32;;;;;;;12.73;2.53;;;7.40;99.90;;;;;;5073441;28;20028;-76
2021/04/22 07:53:58;;;;;;;8.88;2.38;;;7.50;99.90;;;;;;5070034;28;20365;-75
2021/04/22 07:56:23;;;;;;;8.68;1.92;;;7.50;99.90;;;;;;5063159;28;20024;-73
2021/04/22 07:58:49;;;;;;;15.07;3.08;;;7.60;99.90;;;;;;5073980;28;20385;-75
2021/04/22 08:01:15;;;;;;;18.90;2.58;;;7.60;99.90;;;;;;5073849;28;20028;-68
2021/04/22 08:03:40;;;;;;;18.73;2.38;;;7.70;99.90;;;;;;5072284;28;20048;-68
2021/04/22 08:06:06;;;;;;;7.22;2.47;;;7.80;99.90;;;;;;5073443;28;20017;-70
2021/04/22 08:08:31;;;;;;;15.05;2.25;;;7.80;99.90;;;;;;5073481;28;20055;-76
2021/04/22 08:10:57;;;;;;;13.35;2.42;;;8.00;99.90;;;;;;5071946;28;20033;-76
2021/04/22 08:13:24;;;;;;;12.93;2.40;;;8.00;99.90;;;;;;5073733;28;20027;-78
2021/04/22 08:15:52;;;;;;;12.32;2.70;;;8.10;99.90;;;;;;5069229;28;20052;-77
2021/04/22 08:18:19;;;;;;;14.02;2.63;;;8.10;99.90;;;;;;5071628;28;20021;-77
2021/04/22 08:20:46;;;;;;;6.65;1.40;;;8.40;99.90;;;;;;5071100;28;20020;-77
2021/04/22 08:23:13;;;;;;;13.60;2.42;;;8.50;99.90;;;;;;5072713;28;20073;-76
2021/04/22 08:25:44;;;;;;;16.40;2.80;;;8.60;99.90;;;;;;5071500;28;20017;-76
2021/04/22 08:28:14;;;;;;;10.30;2.25;;;8.70;99.90;;;;;;5072431;28;20472;-76
2021/04/22 08:30:53;;;;;;;7.65;2.45;;;8.70;98.70;;;;;;5071869;28;20135;-76
2021/04/22 08:33:21;;;;;;;11.30;2.15;;;8.60;99.30;;;;;;5072289;28;20069;-77
2021/04/22 08:35:47;;;;;;;14.98;2.50;;;8.50;99.90;;;;;;5072627;28;20024;-76
2021/04/22 08:38:14;;;;;;;7.57;2.25;;;8.60;99.00;;;;;;5072438;28;20421;-76
2021/04/22 08:40:40;;;;;;;14.80;2.60;;;8.60;99.90;;;;;;5072488;28;20028;-77
2021/04/22 08:43:06;;;;;;;7.50;2.10;;;8.60;99.20;;;;;;5073104;28;20376;-76
2021/04/22 08:45:32;;;;;;;8.73;2.10;;;8.80;99.40;;;;;;5071656;28;20488;-76
2021/04/22 08:47:59;;;;;;;15.57;2.15;;;8.90;98.50;;;;;;5072596;28;20028;-76
2021/04/22 08:50:28;;;;;;;13.00;2.50;;;9.10;97.70;;;;;;5072363;28;20040;-76
2021/04/22 08:52:57;;;;;;;10.80;3.35;;;9.10;97.20;;;;;;5072009;28;20027;-76
2021/04/22 08:55:25;;;;;;;8.98;1.95;;;9.30;97.20;;;;;;5072411;28;20111;-75
2021/04/22 08:57:52;;;;;;;10.95;2.47;;;9.30;97.90;;;;;;5072549;28;20027;-76
2021/04/22 09:00:23;;;;;;;7.93;2.20;;;9.10;97.50;;;;;;5071639;28;20060;-76
2021/04/22 09:02:48;;;;;;;13.70;2.72;;;9.00;97.50;;;;;;5072713;28;20028;-76
2021/04/22 09:05:15;;;;;;;5.93;1.90;;;8.70;97.80;;;;;;5072778;28;20082;-75
2021/04/22 09:07:41;;;;;;;10.38;2.10;;;8.70;98.40;;;;;;5071642;28;20078;-76
2021/04/22 09:10:08;;;;;;;9.98;2.50;;;8.60;99.40;;;;;;5072294;28;20036;-76
2021/04/22 09:12:34;;;;;;;9.27;2.20;;;8.60;99.90;;;;;;5071932;28;20484;-76
2021/04/22 09:15:06;;;;;;;14.02;2.85;;;8.70;99.50;;;;;;5071148;28;20036;-77
2021/04/22 09:17:32;;;;;;;5.85;2.25;;;8.70;99.10;;;;;;5072428;28;20036;-77
2021/04/22 09:19:58;;;;;;;11.15;2.03;;;8.80;99.00;;;;;;5072428;28;20094;-76
2021/04/22 09:22:42;;;;;;;16.20;2.55;;;8.90;98.20;;;;;;5071340;28;20028;-76
2021/04/22 09:25:19;;;;;;;10.63;2.70;;;8.90;98.40;;;;;;5072154;28;20365;-78
2021/04/22 09:27:45;;;;;;;9.05;2.22;;;9.10;96.30;;;;;;5072342;28;20074;-75
2021/04/22 09:30:13;;;;;;;14.05;2.70;;;9.20;97.70;;;;;;5074908;28;20500;-75
2021/04/22 09:32:39;;;;;;;9.10;2.38;;;9.20;98.50;;;;;;5072278;28;20025;-76
2021/04/22 09:35:11;;;;;;;10.02;2.38;;;9.30;97.20;;;;;;5071590;28;20028;-76
2021/04/22 09:37:43;;;;;;;6.07;2.20;;;9.40;96.40;;;;;;5071746;28;20020;-76
2021/04/22 09:40:33;;;;;;;9.20;1.90;;;9.50;96.10;;;;;;5076611;28;20024;-76
2021/04/22 09:43:02;;;;;;;9.05;2.40;;;9.50;95.90;;;;;;5073204;28;20036;-75
2021/04/22 09:45:34;;;;;;;7.40;2.38;;;9.50;94.90;;;;;;5076705;28;20111;-75
2021/04/22 09:48:00;;;;;;;16.20;3.03;;;9.50;94.60;;;;;;5076718;28;20013;-75
2021/04/22 09:50:28;;;;;;;6.70;2.28;;;9.50;94.70;;;;;;5076213;28;20127;-76
2021/04/22 09:52:56;;;;;;;13.30;2.42;;;9.60;95.30;;;;;;5076189;28;20027;-75
2021/04/22 09:55:29;;;;;;;11.23;1.98;;;9.70;94.50;;;;;;5074807;28;20045;-75
2021/04/22 09:57:55;;;;;;;8.55;2.15;;;9.60;94.70;;;;;;5076119;28;20020;-75
2021/04/22 10:00:28;;;;;;;6.57;2.05;;;9.60;94.80;;;;;;5075708;28;20074;-75
2021/04/22 10:02:56;;;;;;;8.27;2.60;;;9.50;95.00;;;;;;5075061;28;20020;-75
2021/04/22 10:05:27;;;;;;;11.77;2.55;;;9.60;95.70;;;;;;5075547;28;20111;-76
2021/04/22 10:08:10;;;;;;;10.23;2.28;;;9.80;94.20;;;;;;5075771;28;20029;-75
2021/04/22 10:10:58;;;;;;;8.82;2.63;;;10.00;93.90;;;;;;5074887;28;20396;-75
2021/04/22 10:13:24;;;;;;;7.15;2.90;;;10.20;93.00;;;;;;5075414;28;20039;-77
2021/04/22 10:15:52;;;;;;;7.28;2.65;;;10.30;93.40;;;;;;5075715;28;20591;-77
2021/04/22 10:18:18;;;;;;;8.10;2.47;;;10.40;93.20;;;;;;5074923;28;20025;-76
2021/04/22 10:20:44;;;;;;;13.95;2.60;;;10.30;93.30;;;;;;5075714;28;20447;-76
2021/04/22 10:23:11;;;;;;;14.07;2.83;;;10.40;94.30;;;;;;5077328;28;20048;-77
2021/04/22 10:25:43;;;;;;;13.57;3.47;;;10.50;93.30;;;;;;5074994;28;20016;-76
2021/04/22 10:28:11;;;;;;;11.15;3.78;;;10.40;92.80;;;;;;5074819;28;20056;-68
2021/04/22 10:30:39;;;;;;;8.93;2.65;;;10.50;92.50;;;;;;5074865;28;20044;-75
2021/04/22 10:33:06;;;;;;;11.88;2.67;;;10.50;92.90;;;;;;5075078;28;20534;-76
2021/04/22 10:35:34;;;;;;;17.13;3.00;;;10.60;93.10;;;;;;5074843;28;20085;-75
2021/04/22 10:38:02;;;;;;;12.27;3.72;;;10.50;95.00;;;;;;5074561;28;20024;-75
2021/04/22 10:40:31;;;;;;;14.27;3.55;;;10.50;94.00;;;;;;5074502;28;20573;-76
2021/04/22 10:43:01;;;;;;;10.65;2.40;;;10.60;94.10;;;;;;5074860;28;20020;-75
2021/04/22 10:45:28;;;;;;;16.43;3.27;;;11.00;93.70;;;;;;5074294;28;20586;-76
2021/04/22 10:47:54;;;;;;;12.02;2.45;;;10.90;93.20;;;;;;5075597;28;20062;-76
2021/04/22 10:50:32;;;;;;;10.98;3.22;;;10.90;93.90;;;;;;5074359;28;20113;-74
2021/04/22 10:53:01;;;;;;;8.07;2.45;;;10.90;92.50;;;;;;5073959;28;20020;-75
2021/04/22 10:55:32;;;;;;;11.20;2.80;;;11.00;92.40;;;;;;5074081;28;20024;-74
2021/04/22 10:58:12;;;;;;;8.80;3.63;;;11.00;91.80;;;;;;5073083;28;20021;-76
2021/04/22 11:00:44;;;;;;;9.00;3.08;;;11.10;90.80;;;;;;5073064;28;20067;-78
2021/04/22 11:03:22;;;;;;;6.72;2.85;;;11.20;90.90;;;;;;5072911;28;20033;-77
2021/04/22 11:06:18;;;;;;;10.07;2.80;;;11.20;89.90;;;;;;5072180;28;20024;-75
2021/04/22 11:08:50;;;;;;;9.35;2.80;;;11.40;90.40;;;;;;5072284;28;20029;-74
2021/04/22 11:11:18;;;;;;;11.73;3.60;;;11.40;88.70;;;;;;5074235;28;20020;-75
2021/04/22 11:13:44;;;;;;;9.68;2.58;;;11.40;91.30;;;;;;5073521;28;20020;-77
2021/04/22 11:16:10;;;;;;;10.75;2.85;;;11.40;89.70;;;;;;5074798;28;20107;-78
2021/04/22 11:18:50;;;;;;;14.18;3.47;;;11.20;88.60;;;;;;5074114;28;20062;-77
2021/04/22 11:21:34;;;;;;;9.38;3.30;;;11.20;89.50;;;;;;5073813;28;20024;-77
2021/04/22 11:24:03;;;;;;;8.70;3.33;;;11.20;89.70;;;;;;5074625;28;20473;-77
2021/04/22 11:26:32;;;;;;;15.00;5.53;;;11.10;90.30;;;;;;5073696;28;20033;-71
2021/04/22 11:29:17;;;;;;;19.00;3.38;;;11.20;90.50;;;;;;5072980;28;20084;-71
2021/04/22 11:31:51;;;;;;;10.82;3.00;;;11.30;90.50;;;;;;5077884;28;20045;-69
2021/04/22 11:34:18;;;;;;;9.48;3.03;;;11.30;91.40;;;;;;5078184;28;20025;-69
2021/04/22 11:36:52;;;;;;;5.97;2.42;;;11.40;92.00;;;;;;5073775;28;20484;-69
2021/04/22 11:39:34;;;;;;;11.45;3.22;;;11.40;91.10;;;;;;5073070;28;20025;-69
2021/04/22 11:42:01;;;;;;;11.65;3.47;;;11.40;89.60;;;;;;5074335;28;20495;-70
2021/04/22 11:44:36;;;;;;;12.15;3.53;;;11.40;90.70;;;;;;5074527;28;20109;-70
2021/04/22 11:47:29;;;;;;;13.95;3.83;;;11.60;87.70;;;;;;5079568;28;20029;-70
2021/04/22 11:50:16;;;;;;;14.23;3.55;;;11.70;86.40;;;;;;5063734;28;20040;-73
2021/04/22 11:52:49;;;;;;;10.10;3.88;;;11.80;86.90;;;;;;5073044;28;20400;-73
2021/04/22 11:55:23;;;;;;;9.43;3.50;;;11.90;87.10;;;;;;5072541;28;20021;-72
2021/04/22 11:57:53;;;;;;;16.17;3.83;;;12.00;86.30;;;;;;5073512;28;20016;-73
2021/04/22 12:00:31;;;;;;;15.43;4.20;;;12.20;86.00;;;;;;5072818;28;20362;-73
2021/04/22 12:02:58;;;;;;;11.23;3.25;;;12.30;86.30;;;;;;5071388;28;20020;-74
2021/04/22 12:05:24;;;;;;;11.95;4.65;;;12.90;85.60;;;;;;5071925;28;20082;-75
2021/04/22 12:07:58;;;;;;;11.90;3.20;;;11.80;86.60;;;;;;5072165;28;20058;-73
2021/04/22 12:10:25;;;;;;;6.90;3.25;;;11.40;88.20;;;;;;5070428;28;20356;-73
2021/04/22 12:12:51;;;;;;;15.25;3.75;;;11.60;91.10;;;;;;5072458;28;20107;-73
2021/04/22 12:15:21;;;;;;;15.50;4.03;;;11.90;90.50;;;;;;5072833;28;20096;-74
2021/04/22 12:17:47;;;;;;;11.90;3.67;;;12.10;89.70;;;;;;5073459;28;20024;-74
2021/04/22 12:20:13;;;;;;;7.65;3.88;;;12.30;87.80;;;;;;5072734;28;20070;-74
2021/04/22 12:22:47;;;;;;;10.75;3.47;;;12.30;87.20;;;;;;5073181;28;20027;-74
2021/04/22 12:25:21;;;;;;;13.32;3.65;;;12.30;84.70;;;;;;5071894;28;20511;-73
2021/04/22 12:28:03;;;;;;;13.63;3.90;;;12.10;86.30;;;;;;5072603;28;20017;-74
2021/04/22 12:30:46;;;;;;;10.27;3.30;;;11.90;87.30;;;;;;5071156;28;20048;-74
2021/04/22 12:33:17;;;;;;;12.25;3.85;;;11.90;86.00;;;;;;5072813;28;20171;-74
2021/04/22 12:35:52;;;;;;;13.07;4.03;;;12.70;86.50;;;;;;5072530;28;20051;-74
2021/04/22 12:38:24;;;;;;;10.90;3.92;;;12.30;82.40;;;;;;5072167;28;20094;-74
2021/04/22 12:41:02;;;;;;;5.80;3.40;;;12.30;83.10;;;;;;5071935;28;20032;-74
2021/04/22 12:43:30;;;;;;;11.20;3.88;;;12.20;83.70;;;;;;5072568;28;20028;-74
2021/04/22 12:46:06;;;;;;;8.50;3.67;;;12.00;86.20;;;;;;5071695;28;20448;-75
2021/04/22 12:48:32;;;;;;;12.52;4.18;;;11.90;86.00;;;;;;5072236;28;20047;-74
2021/04/22 12:50:58;;;;;;;13.45;3.97;;;12.10;88.50;;;;;;5071962;28;20522;-74